Time;durP1;ratioP1;P1;durP2;ratioP2;P2;SDS_P1;SDS_P2;PMS_P1;PMS_P2;Temp;Humidity;BMP_temperature;BMP_pressure;BME280_temperature;BME280_humidity;BME280_pressure;Samples;Min_cycle;Max_cycle;Signal;HPM_P1;HPM_P2
2023/11/24 00:01:43;;;;;;;1.17;0.88;;;19.30;57.60;;;;;;5034209;28;20165;-66
2023/11/24 00:04:09;;;;;;;1.48;0.80;;;19.30;57.60;;;;;;5036065;28;20086;-66
2023/11/24 00:06:35;;;;;;;1.63;0.98;;;19.30;57.60;;;;;;5035367;28;20029;-67
2023/11/24 00:09:01;;;;;;;1.60;1.00;;;19.30;57.60;;;;;;5036937;28;20154;-66
2023/11/24 00:11:26;;;;;;;1.30;0.90;;;19.30;57.60;;;;;;5036019;28;20108;-67
2023/11/24 00:13:52;;;;;;;1.33;0.90;;;19.30;57.60;;;;;;5037813;28;20029;-67
2023/11/24 00:16:21;;;;;;;1.70;1.10;;;19.20;57.60;;;;;;5038114;28;20540;-65
2023/11/24 00:18:47;;;;;;;1.25;0.90;;;19.20;57.60;;;;;;5038530;28;20120;-65
2023/11/24 00:21:13;;;;;;;1.33;0.90;;;19.20;57.60;;;;;;5040160;28;20389;-66
2023/11/24 00:23:38;;;;;;;1.40;0.80;;;19.20;57.60;;;;;;5036370;28;20480;-65
2023/11/24 00:26:06;;;;;;;1.42;1.00;;;19.20;57.60;;;;;;5036417;28;20033;-67
2023/11/24 00:28:36;;;;;;;1.75;1.00;;;19.20;57.60;;;;;;5036394;28;20465;-67
2023/11/24 00:31:03;;;;;;;1.23;0.95;;;19.20;57.70;;;;;;5036917;28;20130;-66
2023/11/24 00:33:29;;;;;;;1.75;1.08;;;19.20;57.70;;;;;;5039034;28;20024;-67
2023/11/24 00:35:55;;;;;;;1.35;0.95;;;19.20;57.70;;;;;;5020647;28;20477;-66
2023/11/24 00:38:22;;;;;;;1.20;0.85;;;19.20;57.60;;;;;;5035334;28;20485;-67
2023/11/24 00:40:48;;;;;;;0.80;0.70;;;19.10;57.60;;;;;;5038520;28;20486;-67
2023/11/24 00:43:13;;;;;;;1.10;0.75;;;19.10;57.60;;;;;;5039108;28;20070;-67
2023/11/24 00:45:39;;;;;;;0.98;0.80;;;19.10;57.60;;;;;;5037907;28;20026;-66
2023/11/24 00:48:07;;;;;;;1.10;0.80;;;19.10;57.60;;;;;;5036666;28;20382;-67
2023/11/24 00:50:34;;;;;;;1.23;0.82;;;19.10;57.70;;;;;;5037398;28;20511;-67
2023/11/24 00:53:01;;;;;;;1.05;0.80;;;19.10;57.70;;;;;;5020722;28;20025;-66
2023/11/24 00:55:27;;;;;;;0.98;0.77;;;19.10;57.70;;;;;;5038271;28;20033;-67
2023/11/24 00:57:53;;;;;;;1.20;0.80;;;19.10;57.70;;;;;;5038401;28;20029;-66
2023/11/24 01:00:19;;;;;;;1.00;0.80;;;19.10;57.90;;;;;;5018811;28;20026;-68
2023/11/24 01:02:44;;;;;;;1.48;0.93;;;19.10;57.70;;;;;;5035373;28;20032;-67
2023/11/24 01:05:11;;;;;;;1.13;0.80;;;19.10;57.70;;;;;;5039622;28;20455;-66
2023/11/24 01:07:37;;;;;;;1.00;0.82;;;19.10;57.70;;;;;;5039616;28;20029;-67
2023/11/24 01:10:03;;;;;;;1.23;0.90;;;19.10;57.70;;;;;;5037926;28;20407;-67
2023/11/24 01:12:28;;;;;;;1.30;0.90;;;19.10;57.70;;;;;;5020339;28;20017;-68
2023/11/24 01:14:55;;;;;;;0.95;0.80;;;19.10;57.70;;;;;;5037871;28;20382;-66
2023/11/24 01:17:21;;;;;;;1.15;0.80;;;19.00;57.70;;;;;;5037372;28;20119;-68
2023/11/24 01:19:46;;;;;;;1.33;1.00;;;19.00;57.70;;;;;;5037290;28;20132;-66
2023/11/24 01:22:12;;;;;;;1.02;0.80;;;19.00;57.70;;;;;;5039342;28;20041;-67
2023/11/24 01:24:38;;;;;;;0.95;0.73;;;19.00;57.70;;;;;;5036883;28;20036;-67
2023/11/24 01:27:04;;;;;;;1.25;0.90;;;19.00;57.70;;;;;;5038048;28;20068;-72
2023/11/24 01:29:32;;;;;;;1.35;0.80;;;19.00;57.70;;;;;;5020116;28;20057;-71
2023/11/24 01:31:57;;;;;;;0.73;0.68;;;19.00;57.70;;;;;;5035140;28;20026;-72
2023/11/24 01:34:23;;;;;;;1.17;0.80;;;19.00;57.70;;;;;;5034613;28;20036;-71
2023/11/24 01:36:49;;;;;;;0.80;0.70;;;19.00;57.70;;;;;;5039195;28;20086;-72
2023/11/24 01:39:15;;;;;;;0.77;0.65;;;19.00;57.70;;;;;;5037254;28;20113;-71
2023/11/24 01:41:41;;;;;;;1.13;0.80;;;19.00;57.70;;;;;;5038205;28;20040;-72
2023/11/24 01:44:08;;;;;;;1.00;0.80;;;18.90;57.70;;;;;;5034226;28;20026;-71
2023/11/24 01:46:34;;;;;;;0.95;0.70;;;19.00;57.70;;;;;;5033909;28;20514;-72
2023/11/24 01:49:01;;;;;;;1.30;0.90;;;18.90;57.70;;;;;;5037935;28;20024;-72
2023/11/24 01:51:28;;;;;;;1.30;0.90;;;19.00;57.80;;;;;;5037437;28;20040;-71
2023/11/24 01:53:54;;;;;;;1.08;0.90;;;18.90;57.90;;;;;;5036751;28;20026;-71
2023/11/24 01:56:20;;;;;;;1.30;0.80;;;18.90;57.80;;;;;;5037609;28;20050;-71
2023/11/24 01:58:46;;;;;;;1.02;0.80;;;18.90;57.70;;;;;;5036903;28;20040;-71
2023/11/24 02:01:13;;;;;;;1.10;0.80;;;18.90;57.70;;;;;;5036176;28;20060;-71
2023/11/24 02:03:40;;;;;;;0.98;0.80;;;18.90;57.70;;;;;;5038549;27;20026;-72
2023/11/24 02:06:08;;;;;;;1.30;0.90;;;18.90;57.70;;;;;;5020300;28;20032;-71
2023/11/24 02:08:34;;;;;;;0.80;0.70;;;18.90;57.70;;;;;;5038019;28;20131;-71
2023/11/24 02:11:00;;;;;;;1.17;0.80;;;18.90;57.70;;;;;;5037618;28;20017;-71
2023/11/24 02:13:26;;;;;;;1.20;0.90;;;18.90;57.70;;;;;;5019885;28;20035;-71
2023/11/24 02:15:53;;;;;;;0.93;0.73;;;18.90;57.70;;;;;;5036935;28;20061;-71
2023/11/24 02:18:19;;;;;;;1.02;0.70;;;18.90;57.70;;;;;;5036572;28;20036;-70
2023/11/24 02:20:45;;;;;;;0.60;0.60;;;18.90;57.70;;;;;;5038026;28;20021;-70
2023/11/24 02:23:11;;;;;;;1.05;0.77;;;18.90;57.70;;;;;;5038334;28;20029;-70
2023/11/24 02:25:37;;;;;;;1.02;0.80;;;18.90;57.70;;;;;;5036880;28;20386;-70
2023/11/24 02:28:03;;;;;;;0.90;0.80;;;18.90;57.70;;;;;;5035313;28;20085;-70
2023/11/24 02:30:28;;;;;;;1.27;0.80;;;18.90;57.70;;;;;;5036273;28;20113;-70
2023/11/24 02:32:54;;;;;;;1.33;0.88;;;18.90;57.80;;;;;;5036456;28;20040;-70
2023/11/24 02:35:21;;;;;;;0.77;0.70;;;18.80;57.70;;;;;;5035738;28;20104;-69
2023/11/24 02:37:46;;;;;;;1.05;0.70;;;18.80;57.70;;;;;;5034286;28;20034;-69
2023/11/24 02:40:12;;;;;;;0.73;0.73;;;18.80;57.70;;;;;;5018812;28;20033;-69
2023/11/24 02:42:39;;;;;;;0.98;0.70;;;18.80;57.70;;;;;;5038014;28;20049;-70
2023/11/24 02:45:06;;;;;;;1.08;0.60;;;18.80;57.70;;;;;;5033960;28;20025;-70
2023/11/24 02:47:31;;;;;;;1.00;0.70;;;18.80;57.70;;;;;;5035028;28;20054;-69
2023/11/24 02:49:57;;;;;;;0.82;0.70;;;18.80;57.70;;;;;;5017720;28;20108;-70
2023/11/24 02:52:23;;;;;;;1.35;0.95;;;18.80;57.70;;;;;;5037141;28;20039;-69
2023/11/24 02:54:52;;;;;;;0.93;0.80;;;18.80;57.70;;;;;;5035331;28;20025;-70
2023/11/24 02:57:18;;;;;;;1.17;0.73;;;18.80;58.20;;;;;;5037180;28;20081;-69
2023/11/24 02:59:44;;;;;;;0.85;0.70;;;18.80;57.70;;;;;;5020030;28;20036;-69
2023/11/24 03:02:10;;;;;;;0.93;0.68;;;18.80;57.80;;;;;;5034477;28;20477;-69
2023/11/24 03:04:36;;;;;;;1.10;0.80;;;18.80;57.70;;;;;;5019525;28;20587;-70
2023/11/24 03:07:04;;;;;;;1.10;0.80;;;18.80;57.70;;;;;;5036287;28;20116;-69
2023/11/24 03:09:29;;;;;;;0.90;0.73;;;18.80;57.80;;;;;;5036923;28;20024;-69
2023/11/24 03:11:55;;;;;;;0.80;0.70;;;18.80;57.80;;;;;;5018683;28;20396;-70
2023/11/24 03:14:22;;;;;;;0.60;0.60;;;18.80;57.80;;;;;;5017557;28;20108;-69
2023/11/24 03:16:48;;;;;;;0.93;0.70;;;18.70;57.70;;;;;;5034221;28;20643;-69
2023/11/24 03:19:14;;;;;;;0.85;0.80;;;18.70;57.70;;;;;;5018060;28;20037;-69
2023/11/24 03:21:39;;;;;;;0.63;0.60;;;18.70;57.70;;;;;;5016429;28;20128;-69
2023/11/24 03:24:06;;;;;;;0.68;0.60;;;18.70;57.70;;;;;;5031462;28;20553;-69
2023/11/24 03:26:32;;;;;;;0.77;0.60;;;18.70;57.70;;;;;;5036035;28;20085;-70
2023/11/24 03:28:57;;;;;;;0.98;0.70;;;18.70;57.80;;;;;;5034274;28;20029;-66
2023/11/24 03:31:23;;;;;;;0.95;0.75;;;18.70;57.80;;;;;;5036931;28;20029;-67
2023/11/24 03:33:49;;;;;;;0.75;0.70;;;18.70;57.80;;;;;;5036659;28;20476;-65
2023/11/24 03:36:16;;;;;;;0.75;0.70;;;18.70;57.80;;;;;;5036245;28;20032;-66
2023/11/24 03:38:41;;;;;;;1.10;0.70;;;18.70;57.80;;;;;;5036469;28;20110;-67
2023/11/24 03:41:07;;;;;;;0.90;0.80;;;18.60;57.80;;;;;;5036133;28;20074;-66
2023/11/24 03:43:33;;;;;;;0.82;0.70;;;18.70;57.80;;;;;;5035597;28;20036;-67
2023/11/24 03:45:59;;;;;;;0.70;0.70;;;18.60;57.80;;;;;;5035121;28;20133;-66
2023/11/24 03:48:24;;;;;;;0.60;0.60;;;18.70;57.90;;;;;;5038934;28;20021;-67
2023/11/24 03:50:51;;;;;;;0.77;0.70;;;18.70;58.40;;;;;;5040318;28;20033;-67
2023/11/24 03:53:17;;;;;;;0.85;0.70;;;18.60;57.80;;;;;;5038291;28;20025;-66
2023/11/24 03:55:42;;;;;;;0.90;0.80;;;18.60;57.80;;;;;;5037366;28;20120;-66
2023/11/24 03:58:09;;;;;;;0.95;0.70;;;18.60;57.80;;;;;;5040916;28;20161;-65
2023/11/24 04:00:35;;;;;;;0.90;0.70;;;18.60;57.80;;;;;;5038898;28;20427;-67
2023/11/24 04:03:01;;;;;;;1.38;0.70;;;18.60;57.80;;;;;;5019872;28;20027;-66
2023/11/24 04:05:27;;;;;;;0.77;0.60;;;18.60;57.80;;;;;;5039704;28;20095;-65
2023/11/24 04:07:53;;;;;;;0.93;0.70;;;18.70;57.90;;;;;;5038588;28;20029;-65
2023/11/24 04:10:18;;;;;;;0.80;0.60;;;18.60;57.80;;;;;;5038554;28;20033;-64
2023/11/24 04:12:44;;;;;;;0.60;0.60;;;18.60;57.80;;;;;;5037895;28;20385;-65
2023/11/24 04:15:11;;;;;;;0.70;0.63;;;18.60;57.80;;;;;;5038974;28;20098;-64
2023/11/24 04:17:36;;;;;;;0.93;0.65;;;18.60;57.80;;;;;;5039826;28;20562;-65
2023/11/24 04:20:03;;;;;;;1.00;0.70;;;18.60;57.80;;;;;;5039109;28;20029;-64
2023/11/24 04:22:29;;;;;;;0.60;0.60;;;18.60;57.80;;;;;;5038266;28;20028;-66
2023/11/24 04:24:55;;;;;;;0.88;0.60;;;18.60;57.80;;;;;;5036250;28;20033;-65
2023/11/24 04:27:20;;;;;;;0.65;0.65;;;18.60;58.30;;;;;;5037720;28;20060;-64
2023/11/24 04:29:46;;;;;;;1.02;0.60;;;18.60;57.80;;;;;;5021355;28;20033;-64
2023/11/24 04:32:11;;;;;;;0.88;0.63;;;18.60;57.80;;;;;;5038260;28;20065;-64
2023/11/24 04:34:37;;;;;;;0.75;0.60;;;18.60;57.80;;;;;;5038018;28;20078;-64
2023/11/24 04:37:03;;;;;;;0.60;0.60;;;18.60;57.80;;;;;;5038537;28;20114;-69
2023/11/24 04:39:29;;;;;;;0.85;0.60;;;18.60;57.80;;;;;;5022894;28;20082;-69
2023/11/24 04:41:54;;;;;;;0.63;0.60;;;18.60;57.80;;;;;;5039110;28;20074;-70
2023/11/24 04:44:21;;;;;;;0.80;0.60;;;18.50;57.70;;;;;;5038477;28;20034;-70
2023/11/24 04:46:46;;;;;;;0.63;0.63;;;18.50;57.70;;;;;;5037440;28;20129;-70
2023/11/24 04:49:12;;;;;;;0.73;0.60;;;18.60;57.80;;;;;;5031465;27;20104;-71
2023/11/24 04:51:38;;;;;;;0.80;0.65;;;18.50;57.70;;;;;;5038151;28;20035;-69
2023/11/24 04:54:04;;;;;;;0.90;0.70;;;18.50;57.70;;;;;;5036278;28;20385;-70
2023/11/24 04:56:30;;;;;;;0.90;0.70;;;18.50;57.60;;;;;;5019609;28;20104;-69
2023/11/24 04:58:57;;;;;;;0.68;0.57;;;18.50;57.60;;;;;;5018869;28;20033;-65
2023/11/24 05:01:22;;;;;;;0.50;0.50;;;18.50;57.70;;;;;;5035977;28;20407;-67
2023/11/24 05:03:49;;;;;;;0.60;0.60;;;18.50;57.60;;;;;;5038812;28;20028;-65
2023/11/24 05:06:18;;;;;;;0.60;0.60;;;18.50;57.70;;;;;;5037572;28;20028;-65
2023/11/24 05:08:44;;;;;;;0.52;0.50;;;18.50;57.80;;;;;;5039126;28;20070;-71
2023/11/24 05:11:10;;;;;;;0.80;0.60;;;18.50;57.80;;;;;;5038532;28;20025;-71
2023/11/24 05:13:36;;;;;;;0.60;0.55;;;18.50;57.90;;;;;;5037348;28;20029;-72
2023/11/24 05:16:02;;;;;;;0.82;0.70;;;18.50;57.90;;;;;;5038233;28;20543;-72
2023/11/24 05:18:27;;;;;;;0.60;0.50;;;18.50;57.90;;;;;;5021802;28;20025;-72
2023/11/24 05:20:53;;;;;;;0.60;0.60;;;18.50;58.00;;;;;;5020500;28;20402;-72
2023/11/24 05:23:19;;;;;;;0.73;0.70;;;18.50;58.00;;;;;;5037630;28;20030;-71
2023/11/24 05:25:45;;;;;;;0.82;0.60;;;18.40;58.50;;;;;;5037385;28;20025;-71
2023/11/24 05:28:11;;;;;;;0.77;0.70;;;18.40;58.00;;;;;;5038418;28;20048;-71
2023/11/24 05:30:37;;;;;;;0.75;0.63;;;18.50;58.10;;;;;;5037995;28;20033;-72
2023/11/24 05:33:03;;;;;;;0.60;0.60;;;18.40;58.10;;;;;;5037565;28;20426;-72
2023/11/24 05:35:29;;;;;;;0.73;0.65;;;18.40;58.10;;;;;;5034327;28;20066;-72
2023/11/24 05:37:55;;;;;;;0.60;0.57;;;18.40;58.20;;;;;;5019328;28;20033;-72
2023/11/24 05:40:20;;;;;;;0.95;0.70;;;18.40;58.20;;;;;;5037490;28;20032;-72
2023/11/24 05:42:46;;;;;;;0.60;0.60;;;18.40;58.40;;;;;;5036919;28;20037;-72
2023/11/24 05:45:12;;;;;;;0.70;0.60;;;18.40;58.20;;;;;;5036498;28;20029;-71
2023/11/24 05:47:38;;;;;;;0.82;0.68;;;18.40;58.30;;;;;;5037587;28;20028;-65
2023/11/24 05:50:07;;;;;;;0.65;0.55;;;18.40;58.30;;;;;;5036922;28;20126;-65
2023/11/24 05:52:33;;;;;;;1.02;0.70;;;18.40;58.30;;;;;;5036674;28;20485;-65
2023/11/24 05:55:00;;;;;;;0.60;0.60;;;18.40;58.30;;;;;;5017700;28;20529;-66
2023/11/24 05:57:27;;;;;;;1.02;0.70;;;18.40;58.30;;;;;;5038484;28;20030;-64
2023/11/24 05:59:53;;;;;;;0.63;0.60;;;18.40;58.80;;;;;;5038441;28;20112;-66
2023/11/24 06:02:20;;;;;;;0.63;0.60;;;18.40;58.40;;;;;;5035623;28;20486;-64
2023/11/24 06:04:47;;;;;;;0.40;0.40;;;18.40;58.40;;;;;;5036060;28;20036;-64
2023/11/24 06:07:14;;;;;;;0.68;0.60;;;18.40;58.40;;;;;;5036913;28;20053;-72
2023/11/24 06:09:39;;;;;;;0.80;0.60;;;18.40;58.40;;;;;;5037005;28;20018;-72
2023/11/24 06:12:06;;;;;;;0.85;0.70;;;18.40;58.50;;;;;;5034029;28;20384;-72
2023/11/24 06:14:31;;;;;;;1.58;0.60;;;18.40;58.50;;;;;;5035486;28;20575;-73
2023/11/24 06:16:57;;;;;;;0.65;0.50;;;18.40;58.80;;;;;;5037149;28;20030;-69
2023/11/24 06:19:23;;;;;;;0.80;0.70;;;18.40;60.10;;;;;;5036395;28;20033;-65
2023/11/24 06:21:49;;;;;;;1.00;0.63;;;18.60;60.40;;;;;;5036173;28;20021;-65
2023/11/24 06:24:14;;;;;;;0.68;0.60;;;18.80;60.60;;;;;;5035974;28;20029;-65
2023/11/24 06:26:40;;;;;;;3.13;0.60;;;19.00;60.10;;;;;;5036408;28;20108;-65
2023/11/24 06:29:06;;;;;;;0.57;0.52;;;19.20;59.70;;;;;;5032925;28;20840;-66
2023/11/24 06:31:32;;;;;;;0.57;0.40;;;19.30;59.70;;;;;;5038619;28;20365;-68
2023/11/24 06:33:58;;;;;;;0.60;0.60;;;19.40;59.60;;;;;;5036053;28;20070;-67
2023/11/24 06:36:24;;;;;;;0.70;0.50;;;19.60;59.40;;;;;;5034774;28;20036;-66
2023/11/24 06:38:50;;;;;;;0.57;0.50;;;19.80;59.00;;;;;;5036164;28;20033;-65
2023/11/24 06:41:15;;;;;;;1.20;0.60;;;19.90;58.70;;;;;;5035525;28;20029;-65
2023/11/24 06:43:41;;;;;;;0.88;0.55;;;19.90;58.00;;;;;;5020319;28;20033;-65
2023/11/24 06:46:06;;;;;;;0.90;0.60;;;19.80;57.60;;;;;;5036150;28;20124;-65
2023/11/24 06:48:32;;;;;;;0.50;0.50;;;19.70;57.40;;;;;;5034407;28;20045;-66
2023/11/24 06:50:58;;;;;;;0.50;0.45;;;19.70;57.50;;;;;;5035765;28;20033;-67
2023/11/24 06:53:24;;;;;;;0.50;0.50;;;19.60;57.50;;;;;;5035194;28;20032;-66
2023/11/24 06:55:50;;;;;;;0.73;0.55;;;19.60;57.40;;;;;;5025988;28;20388;-66
2023/11/24 06:58:15;;;;;;;0.40;0.40;;;19.60;57.40;;;;;;5034170;28;20021;-68
2023/11/24 07:00:42;;;;;;;0.47;0.40;;;19.60;57.40;;;;;;5035779;28;20429;-68
2023/11/24 07:03:07;;;;;;;0.50;0.50;;;19.60;57.40;;;;;;5025593;27;20070;-68
2023/11/24 07:05:33;;;;;;;0.98;0.50;;;19.60;57.40;;;;;;5035069;28;20029;-69
2023/11/24 07:07:58;;;;;;;0.93;0.60;;;19.60;57.50;;;;;;5021312;28;20043;-68
2023/11/24 07:10:26;;;;;;;0.95;0.57;;;19.60;57.30;;;;;;5018879;28;20029;-68
2023/11/24 07:12:52;;;;;;;0.95;0.60;;;19.60;57.20;;;;;;5036374;28;20354;-68
2023/11/24 07:15:18;;;;;;;0.75;0.50;;;19.60;57.20;;;;;;5036838;28;20022;-69
2023/11/24 07:17:44;;;;;;;0.93;0.60;;;19.60;57.50;;;;;;5037901;28;20025;-66
2023/11/24 07:20:11;;;;;;;0.80;0.50;;;19.70;57.50;;;;;;5036206;28;20033;-66
2023/11/24 07:22:41;;;;;;;0.90;0.60;;;19.70;57.70;;;;;;5019564;28;20489;-67
2023/11/24 07:25:08;;;;;;;0.50;0.50;;;19.70;57.80;;;;;;5022696;28;20033;-66
2023/11/24 07:27:33;;;;;;;0.47;0.40;;;19.70;57.90;;;;;;5036100;28;20144;-66
2023/11/24 07:29:59;;;;;;;0.70;0.50;;;19.70;57.90;;;;;;5037456;28;20089;-67
2023/11/24 07:32:28;;;;;;;1.98;0.60;;;19.70;58.00;;;;;;5037247;28;20028;-67
2023/11/24 07:34:54;;;;;;;0.80;0.60;;;19.90;58.70;;;;;;5037130;28;20022;-67
2023/11/24 07:37:20;;;;;;;1.20;0.70;;;20.00;58.70;;;;;;5034741;28;20040;-66
2023/11/24 07:39:46;;;;;;;1.00;0.60;;;20.30;58.20;;;;;;5036069;28;20186;-66
2023/11/24 07:42:12;;;;;;;1.33;0.60;;;20.60;57.60;;;;;;5035311;28;20018;-67
2023/11/24 07:44:38;;;;;;;0.70;0.50;;;20.80;57.30;;;;;;5036028;28;20029;-67
2023/11/24 07:47:05;;;;;;;1.38;0.70;;;20.70;55.80;;;;;;5035063;28;20113;-66
2023/11/24 07:49:31;;;;;;;0.80;0.60;;;20.70;56.30;;;;;;5033445;28;20029;-66
2023/11/24 07:51:57;;;;;;;0.93;0.60;;;20.60;55.60;;;;;;5035609;28;20022;-68
2023/11/24 07:54:23;;;;;;;0.60;0.52;;;20.60;55.50;;;;;;5034189;28;20481;-67
2023/11/24 07:56:48;;;;;;;1.13;0.63;;;20.50;55.50;;;;;;5034526;28;20041;-66
2023/11/24 07:59:15;;;;;;;0.60;0.55;;;20.50;55.50;;;;;;5036763;28;20111;-66
2023/11/24 08:01:41;;;;;;;1.30;0.70;;;20.50;55.50;;;;;;5033687;28;20537;-66
2023/11/24 08:04:07;;;;;;;1.38;0.70;;;20.50;55.50;;;;;;5035472;28;20052;-67
2023/11/24 08:06:33;;;;;;;0.82;0.60;;;20.50;55.50;;;;;;5016882;28;20036;-67
2023/11/24 08:09:03;;;;;;;0.88;0.70;;;20.50;55.40;;;;;;5016976;28;20112;-72
2023/11/24 08:11:30;;;;;;;1.98;0.60;;;20.50;55.40;;;;;;5033787;28;20488;-73
2023/11/24 08:13:57;;;;;;;1.23;0.80;;;20.50;55.60;;;;;;5038312;28;20366;-71
2023/11/24 08:16:23;;;;;;;0.77;0.60;;;20.40;55.50;;;;;;5037152;28;20025;-73
2023/11/24 08:18:49;;;;;;;0.70;0.60;;;20.50;55.60;;;;;;5018549;28;20022;-73
2023/11/24 08:21:15;;;;;;;1.58;0.70;;;20.40;55.50;;;;;;5037461;28;20030;-74
2023/11/24 08:23:41;;;;;;;1.58;0.60;;;20.40;55.40;;;;;;5019763;28;20035;-73
2023/11/24 08:26:09;;;;;;;0.50;0.40;;;20.40;55.50;;;;;;5038429;28;20105;-73
2023/11/24 08:28:35;;;;;;;1.42;0.50;;;20.40;55.70;;;;;;5039912;28;20029;-72
2023/11/24 08:31:01;;;;;;;0.55;0.55;;;20.40;55.90;;;;;;5036354;28;20311;-72
2023/11/24 08:33:26;;;;;;;0.40;0.40;;;20.40;56.10;;;;;;5017907;28;20365;-71
2023/11/24 08:35:52;;;;;;;0.60;0.50;;;20.40;56.20;;;;;;5041340;28;20033;-71
2023/11/24 08:38:17;;;;;;;0.40;0.40;;;20.40;56.30;;;;;;5038842;28;20038;-74
2023/11/24 08:40:43;;;;;;;1.33;0.50;;;20.40;56.90;;;;;;5038984;28;20065;-74
2023/11/24 08:43:09;;;;;;;0.60;0.50;;;20.40;56.40;;;;;;5039015;27;20116;-74
2023/11/24 08:45:34;;;;;;;1.10;0.70;;;20.40;56.40;;;;;;5037985;28;20507;-74
2023/11/24 08:48:00;;;;;;;0.75;0.65;;;20.40;56.40;;;;;;5020187;28;20055;-73
2023/11/24 08:50:28;;;;;;;0.40;0.40;;;20.40;56.40;;;;;;5037237;28;20435;-74
2023/11/24 08:52:54;;;;;;;0.57;0.50;;;20.40;56.40;;;;;;5038460;28;20025;-73
2023/11/24 08:55:19;;;;;;;0.77;0.45;;;20.40;56.40;;;;;;5040158;28;20063;-74
2023/11/24 08:57:45;;;;;;;0.80;0.50;;;20.40;56.40;;;;;;5038379;28;20033;-73
2023/11/24 09:00:14;;;;;;;0.50;0.50;;;20.50;56.40;;;;;;5039758;28;20025;-73
2023/11/24 09:02:41;;;;;;;0.50;0.50;;;20.50;56.40;;;;;;5040072;28;20029;-73
2023/11/24 09:05:08;;;;;;;0.60;0.60;;;20.50;56.40;;;;;;5039313;28;20032;-73
2023/11/24 09:07:33;;;;;;;0.75;0.50;;;20.50;56.40;;;;;;5038198;28;20108;-74
2023/11/24 09:10:02;;;;;;;0.55;0.43;;;20.50;56.40;;;;;;5020923;28;20116;-74
2023/11/24 09:12:28;;;;;;;0.50;0.50;;;20.50;56.40;;;;;;5035965;28;20404;-74
2023/11/24 09:14:53;;;;;;;0.75;0.50;;;20.50;56.40;;;;;;5037466;28;20021;-74
2023/11/24 09:17:20;;;;;;;0.50;0.50;;;20.50;56.40;;;;;;5036977;28;20587;-74
2023/11/24 09:19:46;;;;;;;0.55;0.50;;;20.50;56.40;;;;;;5037300;28;20044;-72
2023/11/24 09:22:12;;;;;;;0.85;0.50;;;20.50;56.40;;;;;;5038373;28;20044;-75
2023/11/24 09:24:38;;;;;;;0.65;0.50;;;20.60;56.40;;;;;;5035486;28;20018;-72
2023/11/24 09:27:04;;;;;;;0.40;0.40;;;20.60;56.40;;;;;;5036273;28;20409;-73
2023/11/24 09:29:30;;;;;;;0.40;0.40;;;20.60;56.40;;;;;;5035710;28;20033;-74
2023/11/24 09:31:58;;;;;;;0.50;0.40;;;20.60;56.40;;;;;;5036939;28;20108;-74
2023/11/24 09:34:28;;;;;;;0.98;0.55;;;20.60;56.40;;;;;;5036198;28;20100;-74
2023/11/24 09:36:54;;;;;;;0.85;0.60;;;20.60;56.30;;;;;;5037674;28;20017;-74
2023/11/24 09:39:25;;;;;;;0.55;0.50;;;20.60;56.40;;;;;;5035453;28;20036;-74
2023/11/24 09:41:52;;;;;;;0.70;0.60;;;20.60;56.40;;;;;;5036640;28;20051;-74
2023/11/24 09:44:18;;;;;;;0.50;0.50;;;20.60;56.40;;;;;;5039444;28;20524;-73
2023/11/24 09:46:46;;;;;;;0.88;0.52;;;20.60;56.30;;;;;;5037170;28;20032;-73
2023/11/24 09:49:15;;;;;;;1.33;0.65;;;20.60;56.60;;;;;;5037501;28;20536;-69
2023/11/24 09:51:41;;;;;;;1.13;0.57;;;20.70;56.10;;;;;;5037765;28;20541;-70
2023/11/24 09:54:08;;;;;;;0.65;0.57;;;20.70;55.60;;;;;;5018937;28;20041;-70
2023/11/24 09:56:35;;;;;;;0.70;0.50;;;20.70;55.50;;;;;;5036911;28;20433;-69
2023/11/24 09:59:08;;;;;;;0.77;0.60;;;20.70;55.30;;;;;;5020155;28;20404;-70
2023/11/24 10:01:37;;;;;;;0.93;0.60;;;20.70;55.20;;;;;;5035851;28;20025;-69
2023/11/24 10:04:05;;;;;;;1.38;0.65;;;20.70;55.10;;;;;;5035984;28;20373;-69
2023/11/24 10:06:38;;;;;;;0.95;0.50;;;20.70;55.10;;;;;;5037279;28;20036;-69
2023/11/24 10:09:10;;;;;;;0.52;0.50;;;20.70;55.10;;;;;;5035306;28;20117;-69
2023/11/24 10:11:38;;;;;;;0.73;0.50;;;20.60;55.00;;;;;;5016465;28;20048;-69
2023/11/24 10:14:06;;;;;;;0.63;0.50;;;20.60;55.00;;;;;;5035735;28;20026;-69
2023/11/24 10:16:32;;;;;;;1.08;0.60;;;20.60;55.00;;;;;;5035604;28;20866;-69
2023/11/24 10:19:00;;;;;;;1.02;0.60;;;20.60;55.00;;;;;;5037089;28;20036;-69
2023/11/24 10:21:26;;;;;;;0.47;0.47;;;20.60;55.00;;;;;;5036520;28;20632;-70
2023/11/24 10:23:52;;;;;;;0.70;0.50;;;20.60;55.00;;;;;;5036142;28;20028;-68
2023/11/24 10:26:18;;;;;;;1.00;0.60;;;20.60;55.00;;;;;;5035602;28;20116;-69
2023/11/24 10:28:47;;;;;;;1.50;0.60;;;20.60;55.10;;;;;;5037423;28;20033;-67
2023/11/24 10:31:13;;;;;;;1.40;0.63;;;20.60;54.90;;;;;;5018751;28;20028;-67
2023/11/24 10:33:43;;;;;;;0.90;0.70;;;20.60;55.00;;;;;;5034705;28;20051;-67
2023/11/24 10:36:09;;;;;;;1.20;0.68;;;20.60;54.90;;;;;;5036147;28;20029;-68
2023/11/24 10:38:39;;;;;;;2.00;0.63;;;20.60;54.80;;;;;;5038774;28;20034;-67
2023/11/24 10:41:19;;;;;;;1.95;0.70;;;20.60;54.80;;;;;;5035307;28;20022;-67
2023/11/24 10:43:49;;;;;;;1.33;0.60;;;20.60;54.80;;;;;;5036711;28;20078;-68
2023/11/24 10:46:17;;;;;;;1.05;0.70;;;20.60;54.80;;;;;;5036999;28;20025;-67
2023/11/24 10:49:06;;;;;;;0.83;0.53;;;20.60;54.80;;;;;;5017665;28;20051;-71
2023/11/24 10:51:43;;;;;;;0.90;0.60;;;20.60;54.80;;;;;;5036525;28;20021;-71
2023/11/24 10:54:25;;;;;;;0.95;0.50;;;20.60;54.90;;;;;;5035981;28;20045;-71
2023/11/24 10:56:52;;;;;;;1.10;0.57;;;20.60;54.90;;;;;;5038213;28;20028;-71
2023/11/24 10:59:19;;;;;;;0.98;0.60;;;20.60;55.00;;;;;;5036051;28;20549;-69
2023/11/24 11:01:46;;;;;;;2.15;0.60;;;20.60;55.00;;;;;;5034047;28;20108;-69
2023/11/24 11:04:14;;;;;;;0.85;0.60;;;20.50;55.00;;;;;;5034820;28;20040;-69
2023/11/24 11:07:04;;;;;;;0.55;0.50;;;20.50;55.00;;;;;;5019215;28;20311;-69
2023/11/24 11:09:42;;;;;;;0.95;0.60;;;20.50;55.00;;;;;;5035728;28;20028;-69
2023/11/24 11:12:19;;;;;;;1.08;0.60;;;20.50;54.90;;;;;;5033717;28;20430;-69
2023/11/24 11:14:46;;;;;;;1.17;0.55;;;20.50;55.20;;;;;;5020826;28;20029;-70
2023/11/24 11:17:17;;;;;;;0.93;0.50;;;20.50;55.10;;;;;;5035191;28;20036;-69
2023/11/24 11:20:12;;;;;;;0.73;0.52;;;20.50;55.10;;;;;;5035665;28;20469;-69
2023/11/24 11:22:40;;;;;;;0.52;0.50;;;20.50;55.10;;;;;;5036906;28;20409;-69
2023/11/24 11:25:25;;;;;;;1.40;0.50;;;20.50;55.10;;;;;;5037543;28;20052;-68
2023/11/24 11:27:54;;;;;;;1.23;0.60;;;20.50;55.20;;;;;;5018421;28;20033;-68
2023/11/24 11:30:27;;;;;;;0.75;0.50;;;20.50;55.10;;;;;;5026579;28;20539;-68
2023/11/24 11:33:02;;;;;;;1.35;0.70;;;20.50;55.10;;;;;;5035028;28;20040;-68
2023/11/24 11:35:34;;;;;;;1.67;0.70;;;20.50;55.00;;;;;;5024891;28;20466;-68
2023/11/24 11:38:00;;;;;;;1.17;0.60;;;20.50;55.00;;;;;;5035556;28;20456;-71
2023/11/24 11:40:32;;;;;;;0.82;0.70;;;20.50;54.90;;;;;;5035640;28;20057;-72
2023/11/24 11:43:05;;;;;;;1.00;0.45;;;20.50;54.90;;;;;;5035526;28;20097;-71
2023/11/24 11:45:32;;;;;;;1.02;0.50;;;20.50;54.90;;;;;;5035108;28;20026;-71
2023/11/24 11:48:02;;;;;;;0.95;0.60;;;20.40;54.80;;;;;;5035830;28;20021;-71
2023/11/24 11:50:29;;;;;;;1.48;0.80;;;20.50;54.90;;;;;;5035829;28;20020;-71
2023/11/24 11:53:00;;;;;;;1.13;0.57;;;20.50;54.80;;;;;;5025469;28;20021;-71
2023/11/24 11:55:28;;;;;;;0.73;0.50;;;20.50;55.00;;;;;;5043500;28;20017;-71
2023/11/24 11:57:55;;;;;;;0.63;0.40;;;20.50;55.10;;;;;;5045271;28;20499;-67
2023/11/24 12:00:25;;;;;;;1.60;0.68;;;20.50;55.10;;;;;;5047432;28;20128;-69
2023/11/24 12:02:52;;;;;;;1.10;0.70;;;20.40;55.00;;;;;;5025965;28;20033;-68
2023/11/24 12:05:20;;;;;;;1.10;0.60;;;20.50;55.00;;;;;;5039399;28;20032;-69
2023/11/24 12:07:48;;;;;;;1.58;0.70;;;20.50;54.90;;;;;;5035799;28;20394;-69
2023/11/24 12:10:14;;;;;;;1.40;0.70;;;20.50;54.90;;;;;;5040111;28;20469;-71
2023/11/24 12:12:43;;;;;;;1.40;0.70;;;20.50;54.90;;;;;;5040705;28;20096;-70
2023/11/24 12:15:09;;;;;;;1.75;0.70;;;20.50;54.80;;;;;;5038743;28;20047;-71
2023/11/24 12:17:36;;;;;;;1.73;0.70;;;20.50;54.90;;;;;;5037684;28;20036;-70
2023/11/24 12:20:10;;;;;;;0.70;0.57;;;20.50;55.00;;;;;;5037208;28;20032;-70
2023/11/24 12:22:36;;;;;;;0.73;0.50;;;20.50;55.00;;;;;;5036594;28;20038;-70
2023/11/24 12:25:04;;;;;;;0.88;0.75;;;20.50;55.00;;;;;;5039375;28;20025;-70
2023/11/24 12:27:33;;;;;;;1.00;0.50;;;20.50;54.90;;;;;;5037139;28;20056;-70
2023/11/24 12:30:05;;;;;;;0.70;0.60;;;20.50;55.00;;;;;;5023858;28;20029;-70
2023/11/24 12:32:34;;;;;;;0.40;0.40;;;20.50;55.00;;;;;;5038942;28;20052;-70
2023/11/24 12:35:00;;;;;;;1.45;0.73;;;20.50;55.00;;;;;;5037897;28;20016;-70
2023/11/24 12:37:27;;;;;;;1.02;0.50;;;20.50;55.00;;;;;;5038580;28;20034;-70
2023/11/24 12:39:53;;;;;;;1.58;0.75;;;20.50;55.00;;;;;;5039669;28;20029;-70
2023/11/24 12:42:22;;;;;;;2.13;0.60;;;20.50;55.00;;;;;;5037676;28;20025;-70
2023/11/24 12:44:48;;;;;;;1.03;0.50;;;20.50;55.00;;;;;;5021344;28;20055;-70
2023/11/24 12:47:16;;;;;;;1.50;0.68;;;20.50;54.90;;;;;;5038037;28;20128;-70